Time;durP1;ratioP1;P1;durP2;ratioP2;P2;SDS_P1;SDS_P2;PMS_P1;PMS_P2;Temp;Humidity;BMP_temperature;BMP_pressure;BME280_temperature;BME280_humidity;BME280_pressure;Samples;Min_cycle;Max_cycle;Signal;HPM_P1;HPM_P2
2023/02/20 08:52:46;;;;;;;6.53;2.83;;;8.50;99.90;;;;;;4990797;23;20635;-71
2023/02/20 08:55:13;;;;;;;4.87;2.60;;;8.30;99.90;;;;;;4977367;28;20565;-74
2023/02/20 08:57:43;;;;;;;7.93;2.40;;;8.30;99.90;;;;;;4992575;28;20231;-71
2023/02/20 09:00:11;;;;;;;6.27;2.73;;;8.40;99.90;;;;;;4993758;28;20211;-71
2023/02/20 09:02:38;;;;;;;9.83;3.63;;;8.40;99.90;;;;;;4993616;28;20210;-72
2023/02/20 09:05:05;;;;;;;6.90;3.03;;;8.50;99.90;;;;;;4993601;28;20278;-72
2023/02/20 09:07:32;;;;;;;14.67;3.40;;;8.60;99.90;;;;;;4993200;28;20230;-73
2023/02/20 09:10:00;;;;;;;7.00;2.97;;;8.60;99.90;;;;;;4993779;28;20216;-72
2023/02/20 09:12:27;;;;;;;7.73;3.07;;;8.70;99.90;;;;;;4993573;28;20241;-74
2023/02/20 09:14:53;;;;;;;7.13;2.73;;;8.70;99.90;;;;;;4993690;28;20210;-72
2023/02/20 09:17:20;;;;;;;7.67;2.87;;;8.70;99.90;;;;;;4992980;28;20206;-74
2023/02/20 09:19:47;;;;;;;6.90;3.23;;;8.50;99.90;;;;;;4993227;28;20301;-72
2023/02/20 09:22:15;;;;;;;6.53;2.80;;;8.60;99.90;;;;;;4993615;28;20233;-75
2023/02/20 09:24:42;;;;;;;9.17;3.80;;;8.70;99.90;;;;;;4993459;28;20213;-74
2023/02/20 09:27:10;;;;;;;5.90;2.87;;;8.60;99.90;;;;;;4992965;28;20703;-74
2023/02/20 09:29:39;;;;;;;8.80;3.23;;;8.80;99.90;;;;;;4993205;28;20293;-74
2023/02/20 09:32:07;;;;;;;7.57;2.73;;;8.70;99.90;;;;;;4992915;28;20265;-75
2023/02/20 09:34:33;;;;;;;8.97;3.10;;;8.80;99.90;;;;;;4992992;28;20210;-74
2023/02/20 09:37:00;;;;;;;8.20;2.63;;;8.80;99.90;;;;;;4992950;28;20206;-74
2023/02/20 09:39:27;;;;;;;4.53;1.83;;;8.80;99.90;;;;;;4993026;28;20226;-75
2023/02/20 09:42:15;;;;;;;3.57;2.40;;;8.60;99.90;;;;;;4992924;28;20209;-74
2023/02/20 09:44:51;;;;;;;5.70;2.93;;;8.70;99.90;;;;;;4992718;28;20606;-72
2023/02/20 09:47:32;;;;;;;8.90;3.07;;;8.60;99.90;;;;;;4992947;28;20209;-74
2023/02/20 09:50:02;;;;;;;5.30;2.33;;;8.60;99.90;;;;;;4993425;28;20230;-69
2023/02/20 09:52:34;;;;;;;5.37;2.53;;;8.70;99.90;;;;;;4992765;28;20241;-72
2023/02/20 09:55:05;;;;;;;11.90;3.23;;;8.70;99.90;;;;;;4993114;28;20221;-70
2023/02/20 09:57:36;;;;;;;8.60;2.70;;;8.80;99.90;;;;;;4987702;28;20700;-71
2023/02/20 10:00:08;;;;;;;8.83;2.80;;;8.80;99.90;;;;;;4992214;28;20561;-72
2023/02/20 10:02:39;;;;;;;6.23;3.30;;;8.80;99.90;;;;;;4991697;28;20210;-71
2023/02/20 10:05:18;;;;;;;3.97;2.73;;;8.80;99.90;;;;;;4991773;28;20210;-70
2023/02/20 10:07:46;;;;;;;8.93;3.03;;;8.90;99.90;;;;;;4991568;28;20230;-70
2023/02/20 10:10:20;;;;;;;14.00;3.17;;;8.90;99.90;;;;;;4991958;28;20206;-71
2023/02/20 10:13:01;;;;;;;9.07;2.63;;;8.80;99.90;;;;;;4991786;28;20236;-70
2023/02/20 10:15:36;;;;;;;10.93;3.20;;;9.00;99.90;;;;;;4991776;28;20209;-73
2023/02/20 10:18:16;;;;;;;8.93;3.23;;;9.10;99.90;;;;;;4992365;28;20647;-72
2023/02/20 10:20:53;;;;;;;5.93;2.80;;;9.10;99.90;;;;;;4991960;28;20210;-72
2023/02/20 10:23:28;;;;;;;14.87;3.20;;;9.10;99.90;;;;;;4992716;28;20236;-72
2023/02/20 10:25:59;;;;;;;7.40;3.20;;;9.10;99.90;;;;;;4994078;28;20206;-72
2023/02/20 10:28:28;;;;;;;13.37;3.20;;;9.10;99.90;;;;;;4995016;28;20222;-73
2023/02/20 10:31:00;;;;;;;5.93;2.57;;;9.20;99.90;;;;;;4995205;28;20214;-75
2023/02/20 10:33:33;;;;;;;7.33;2.80;;;9.30;99.90;;;;;;4994529;28;20573;-72
2023/02/20 10:36:07;;;;;;;8.47;2.70;;;9.20;99.90;;;;;;4995132;28;20222;-72
2023/02/20 10:38:38;;;;;;;5.90;2.73;;;9.20;99.90;;;;;;4994602;28;20240;-72
2023/02/20 10:41:11;;;;;;;5.13;2.20;;;9.30;99.90;;;;;;4993456;28;20673;-72
2023/02/20 10:43:48;;;;;;;8.37;2.60;;;9.40;99.90;;;;;;4994828;28;20210;-70
2023/02/20 10:46:22;;;;;;;6.33;2.90;;;9.30;99.90;;;;;;4994772;28;20198;-72
2023/02/20 10:48:49;;;;;;;5.33;2.50;;;9.40;99.90;;;;;;4994437;28;20341;-71
2023/02/20 10:51:21;;;;;;;8.30;2.70;;;9.50;99.90;;;;;;4994427;28;20588;-71
2023/02/20 10:53:55;;;;;;;7.30;2.63;;;9.50;99.90;;;;;;4993961;28;20708;-71
2023/02/20 10:56:31;;;;;;;7.63;2.87;;;9.70;99.90;;;;;;4993848;28;20213;-71
2023/02/20 10:59:08;;;;;;;7.23;2.80;;;9.80;99.90;;;;;;4994015;28;20230;-71
2023/02/20 11:01:36;;;;;;;5.87;2.87;;;9.70;99.90;;;;;;4993513;28;20680;-71
2023/02/20 11:04:09;;;;;;;5.73;2.73;;;9.50;99.90;;;;;;4992089;28;20206;-72
2023/02/20 11:06:39;;;;;;;4.67;2.73;;;9.50;99.90;;;;;;4994318;28;20209;-71
2023/02/20 11:09:07;;;;;;;8.33;2.43;;;9.60;99.90;;;;;;4994167;28;20226;-71
2023/02/20 11:11:38;;;;;;;7.67;2.80;;;9.60;99.90;;;;;;4994075;28;20568;-68
2023/02/20 11:14:13;;;;;;;11.57;2.87;;;9.60;99.90;;;;;;4992092;28;20558;-69
2023/02/20 11:16:47;;;;;;;5.73;2.63;;;9.70;99.90;;;;;;4990983;28;20541;-69
2023/02/20 11:19:20;;;;;;;5.17;2.63;;;9.70;99.90;;;;;;4995330;28;20230;-69
2023/02/20 11:21:48;;;;;;;8.87;3.07;;;9.70;99.90;;;;;;4995058;28;20214;-73
2023/02/20 11:24:37;;;;;;;11.77;3.73;;;9.60;99.90;;;;;;4995230;28;20206;-69
2023/02/20 11:27:09;;;;;;;6.30;2.70;;;9.50;99.90;;;;;;4990768;28;20203;-72
2023/02/20 11:29:51;;;;;;;6.97;3.63;;;9.50;99.90;;;;;;4995365;28;20206;-70
2023/02/20 11:32:35;;;;;;;7.53;2.97;;;9.60;99.90;;;;;;4995229;28;20724;-71
2023/02/20 11:35:28;;;;;;;9.20;2.77;;;9.70;99.90;;;;;;4995089;28;20206;-69
2023/02/20 11:38:18;;;;;;;6.93;2.83;;;9.80;99.90;;;;;;4993976;28;20226;-72
2023/02/20 11:40:47;;;;;;;5.43;2.87;;;9.80;99.90;;;;;;4995089;28;20625;-72
2023/02/20 11:43:19;;;;;;;6.17;2.60;;;9.80;99.90;;;;;;4995017;28;20229;-71
2023/02/20 11:45:47;;;;;;;4.37;2.77;;;9.70;99.90;;;;;;4994726;28;20199;-71
2023/02/20 11:48:15;;;;;;;4.57;2.63;;;9.60;99.90;;;;;;4994713;28;20230;-69
2023/02/20 11:50:44;;;;;;;7.00;2.70;;;9.70;99.90;;;;;;4995135;28;20210;-69
2023/02/20 11:53:20;;;;;;;4.53;2.17;;;9.70;99.90;;;;;;4994467;28;20240;-69
2023/02/20 11:55:47;;;;;;;7.93;2.80;;;9.40;99.90;;;;;;4994761;28;20202;-70
2023/02/20 11:58:23;;;;;;;5.77;2.17;;;9.30;99.90;;;;;;4994862;28;20317;-70
2023/02/20 12:00:54;;;;;;;5.20;2.33;;;9.50;99.90;;;;;;4995046;28;20202;-69
2023/02/20 12:03:23;;;;;;;9.90;2.87;;;9.70;99.90;;;;;;4994656;28;20211;-70
2023/02/20 12:05:51;;;;;;;5.80;2.63;;;9.80;99.90;;;;;;4994421;28;20217;-70
2023/02/20 12:08:52;;;;;;;4.53;2.50;;;9.90;99.90;;;;;;4994510;28;20581;-70
2023/02/20 12:11:20;;;;;;;6.40;3.00;;;9.90;99.90;;;;;;4962683;28;20467;-72
2023/02/20 12:13:50;;;;;;;3.27;2.03;;;9.90;99.90;;;;;;4994233;28;20255;-70
2023/02/20 12:16:32;;;;;;;7.37;2.30;;;9.70;99.90;;;;;;4994628;28;20215;-70
2023/02/20 12:19:10;;;;;;;9.43;3.27;;;9.70;99.90;;;;;;4989765;28;20240;-69
2023/02/20 12:21:50;;;;;;;6.70;2.53;;;9.90;99.90;;;;;;4993461;28;20300;-68
2023/02/20 12:24:38;;;;;;;4.50;2.40;;;9.80;99.90;;;;;;4993189;28;20206;-71
2023/02/20 12:27:22;;;;;;;4.83;1.80;;;9.70;99.90;;;;;;4994205;28;20203;-72
2023/02/20 12:29:59;;;;;;;4.23;1.87;;;9.70;99.90;;;;;;4994288;28;20206;-71
2023/02/20 12:32:38;;;;;;;8.23;2.10;;;9.80;99.90;;;;;;4993662;28;20240;-72
2023/02/20 12:35:29;;;;;;;5.60;1.70;;;9.90;99.90;;;;;;4994058;28;20206;-71
2023/02/20 12:38:17;;;;;;;4.27;2.37;;;9.90;99.90;;;;;;4994020;28;20325;-71
2023/02/20 12:41:02;;;;;;;5.90;1.90;;;9.70;99.90;;;;;;4993896;28;20209;-72
2023/02/20 12:43:39;;;;;;;4.83;2.30;;;9.80;99.90;;;;;;4993595;28;20207;-72
2023/02/20 12:46:13;;;;;;;8.23;2.00;;;9.80;99.90;;;;;;4993869;28;20210;-71
2023/02/20 12:48:56;;;;;;;6.63;2.50;;;9.80;99.90;;;;;;4993463;28;20222;-70
2023/02/20 12:51:33;;;;;;;6.80;1.90;;;9.90;99.90;;;;;;4993832;28;20210;-71
2023/02/20 12:54:13;;;;;;;7.17;2.30;;;10.00;99.90;;;;;;4993696;28;20237;-71
2023/02/20 12:56:53;;;;;;;5.60;1.93;;;10.00;99.90;;;;;;4993630;28;20207;-70
2023/02/20 12:59:27;;;;;;;5.43;1.80;;;10.20;99.90;;;;;;4993813;28;20226;-71
2023/02/20 13:01:55;;;;;;;5.50;2.10;;;10.50;99.90;;;;;;4993951;28;20202;-71
2023/02/20 13:04:31;;;;;;;3.87;1.70;;;10.70;99.90;;;;;;4993707;28;20207;-73
2023/02/20 13:07:05;;;;;;;5.43;1.70;;;10.70;99.90;;;;;;4993372;28;20665;-71
2023/02/20 13:09:36;;;;;;;5.60;1.80;;;10.80;99.90;;;;;;4993680;28;20242;-71
2023/02/20 13:12:07;;;;;;;4.33;1.90;;;10.80;99.90;;;;;;4993617;28;20570;-71
2023/02/20 13:14:49;;;;;;;7.70;2.37;;;10.70;99.90;;;;;;4989705;28;20240;-71
2023/02/20 13:17:26;;;;;;;8.03;2.00;;;10.60;99.90;;;;;;4974080;28;20207;-74
2023/02/20 13:20:00;;;;;;;5.47;2.17;;;10.70;99.90;;;;;;4983232;28;20206;-73
2023/02/20 13:22:27;;;;;;;5.07;2.50;;;10.80;99.90;;;;;;4993226;28;20208;-77
2023/02/20 13:24:54;;;;;;;4.47;1.97;;;10.60;99.90;;;;;;4993076;28;20207;-74
2023/02/20 13:27:30;;;;;;;9.63;2.30;;;10.30;99.90;;;;;;4993659;28;20564;-72
2023/02/20 13:30:00;;;;;;;5.57;2.10;;;10.40;99.90;;;;;;4994056;28;20273;-70
2023/02/20 13:32:29;;;;;;;9.13;1.90;;;10.30;99.90;;;;;;4993368;28;20222;-70
2023/02/20 13:35:34;;;;;;;5.80;2.67;;;10.30;99.90;;;;;;4993206;28;20221;-76
2023/02/20 13:38:10;;;;;;;6.23;2.30;;;10.20;99.90;;;;;;4993050;28;20425;-74
2023/02/20 13:40:39;;;;;;;4.90;2.00;;;10.10;99.90;;;;;;4993535;28;20225;-71
2023/02/20 13:43:27;;;;;;;4.00;2.20;;;10.10;99.90;;;;;;4988304;28;20301;-70
2023/02/20 13:46:29;;;;;;;4.60;2.03;;;10.00;99.90;;;;;;4991529;28;20210;-72
2023/02/20 13:48:55;;;;;;;2.80;2.10;;;10.00;99.90;;;;;;4930887;29;20232;-71
2023/02/20 13:51:38;;;;;;;5.23;2.00;;;10.00;99.90;;;;;;4979952;28;20222;-71
2023/02/20 13:54:26;;;;;;;8.37;2.73;;;10.00;99.90;;;;;;4991975;28;20261;-72
2023/02/20 13:57:03;;;;;;;6.53;2.67;;;9.90;99.90;;;;;;4991424;28;20207;-74
2023/02/20 13:59:33;;;;;;;5.87;2.50;;;9.90;99.90;;;;;;4992234;28;20226;-72
2023/02/20 14:02:14;;;;;;;5.17;2.20;;;9.80;99.90;;;;;;4995713;28;20238;-74
2023/02/20 14:04:55;;;;;;;6.90;2.03;;;9.80;99.90;;;;;;4995318;28;20232;-75
2023/02/20 14:07:36;;;;;;;2.87;2.00;;;9.90;99.90;;;;;;4995343;28;20210;-74
2023/02/20 14:10:06;;;;;;;6.60;2.60;;;9.90;99.90;;;;;;4984546;28;20238;-74
2023/02/20 14:12:34;;;;;;;5.47;2.20;;;10.00;99.90;;;;;;4995181;28;20234;-74
2023/02/20 14:15:04;;;;;;;10.23;2.00;;;10.10;99.90;;;;;;4976628;28;20209;-73
2023/02/20 14:17:31;;;;;;;3.93;2.00;;;10.20;99.90;;;;;;4976848;28;20231;-73
2023/02/20 14:20:01;;;;;;;4.30;2.03;;;10.10;99.90;;;;;;4976143;28;20203;-73
2023/02/20 14:22:31;;;;;;;3.03;2.13;;;10.20;99.90;;;;;;4987757;28;20211;-74
2023/02/20 14:25:21;;;;;;;6.63;2.40;;;10.30;99.90;;;;;;4995769;28;20213;-73
2023/02/20 14:27:48;;;;;;;4.83;2.20;;;10.30;99.90;;;;;;4987951;28;20317;-74
2023/02/20 14:30:17;;;;;;;2.30;1.87;;;10.10;99.90;;;;;;4996257;28;20211;-73
2023/02/20 14:32:46;;;;;;;10.20;2.20;;;10.00;99.90;;;;;;4995397;28;20237;-74
2023/02/20 14:35:43;;;;;;;5.03;2.33;;;10.00;99.90;;;;;;4995862;28;20206;-73
2023/02/20 14:38:22;;;;;;;3.67;2.03;;;10.10;99.90;;;;;;4994010;28;20596;-73
2023/02/20 14:40:49;;;;;;;3.83;2.50;;;10.20;99.90;;;;;;4998266;28;20206;-72
2023/02/20 14:43:20;;;;;;;4.70;2.37;;;10.20;99.90;;;;;;4997892;28;20211;-71
2023/02/20 14:45:57;;;;;;;6.03;2.30;;;10.20;99.90;;;;;;4997038;28;20286;-72
2023/02/20 14:48:26;;;;;;;4.47;2.23;;;10.10;99.90;;;;;;5007413;23;20716;-78
2023/02/20 14:51:13;;;;;;;4.20;2.30;;;10.20;99.90;;;;;;4994167;28;20237;-78
2023/02/20 14:53:43;;;;;;;3.37;2.23;;;10.30;99.90;;;;;;4982598;28;20680;-78
2023/02/20 14:56:16;;;;;;;7.23;2.23;;;10.20;99.90;;;;;;4993904;28;20210;-82
2023/02/20 14:58:43;;;;;;;4.67;2.00;;;10.20;99.90;;;;;;4997002;28;20700;-85
2023/02/20 15:01:19;;;;;;;3.47;1.97;;;10.00;99.90;;;;;;4994849;28;20302;-77
2023/02/20 15:03:58;;;;;;;6.57;2.27;;;10.00;99.90;;;;;;4973916;28;20214;-75
2023/02/20 15:06:26;;;;;;;4.27;2.13;;;9.90;99.90;;;;;;4974418;28;20680;-82
2023/02/20 15:08:58;;;;;;;4.83;2.17;;;9.90;99.90;;;;;;4974637;28;20231;-77
2023/02/20 15:11:26;;;;;;;3.63;1.93;;;10.00;99.90;;;;;;4973950;28;20203;-76
2023/02/20 15:13:53;;;;;;;4.53;2.03;;;9.90;99.90;;;;;;4974563;28;20249;-74
2023/02/20 15:16:24;;;;;;;6.10;2.03;;;10.00;99.90;;;;;;4974918;28;20207;-76
2023/02/20 15:18:51;;;;;;;3.27;2.10;;;10.10;99.90;;;;;;4974426;28;20316;-76
2023/02/20 15:21:35;;;;;;;4.07;2.10;;;10.20;99.90;;;;;;4974755;28;20213;-75
2023/02/20 15:24:28;;;;;;;3.87;2.30;;;10.20;99.90;;;;;;4974673;28;20218;-74
2023/02/20 15:27:16;;;;;;;5.03;2.57;;;10.10;99.90;;;;;;4974581;28;20566;-75
2023/02/20 15:29:43;;;;;;;8.17;2.63;;;9.90;99.90;;;;;;4974728;28;20207;-74
2023/02/20 15:32:20;;;;;;;4.57;2.13;;;10.00;99.90;;;;;;4974507;28;20207;-76
2023/02/20 15:34:52;;;;;;;6.27;2.30;;;10.10;99.90;;;;;;4972434;28;20235;-75
2023/02/20 15:37:23;;;;;;;5.63;2.27;;;10.10;99.90;;;;;;4974767;28;20543;-74
2023/02/20 15:39:52;;;;;;;7.07;2.37;;;10.10;99.90;;;;;;4974136;28;20784;-79
2023/02/20 15:42:21;;;;;;;4.73;2.03;;;10.10;99.90;;;;;;4974600;28;20218;-77
2023/02/20 15:44:49;;;;;;;7.20;2.57;;;10.10;99.90;;;;;;4974328;28;20219;-76
2023/02/20 15:47:16;;;;;;;7.57;2.13;;;10.10;99.90;;;;;;4974578;28;20211;-73
2023/02/20 15:49:44;;;;;;;3.47;1.83;;;10.20;99.90;;;;;;4974502;28;20639;-78
2023/02/20 15:52:17;;;;;;;5.23;2.17;;;10.10;99.90;;;;;;4974059;28;20203;-75
2023/02/20 15:54:51;;;;;;;6.10;2.50;;;10.00;99.90;;;;;;4973343;28;20239;-76
2023/02/20 15:57:19;;;;;;;5.53;2.23;;;10.10;99.90;;;;;;4974175;28;20316;-73
2023/02/20 15:59:47;;;;;;;4.67;2.43;;;10.00;99.90;;;;;;4973616;28;20210;-74
2023/02/20 16:02:19;;;;;;;5.73;2.23;;;10.20;99.90;;;;;;4973398;28;20299;-75
2023/02/20 16:04:46;;;;;;;9.90;2.40;;;10.10;99.90;;;;;;4973934;28;20219;-74
2023/02/20 16:07:13;;;;;;;5.27;2.73;;;10.00;99.90;;;;;;4973630;28;20222;-75
2023/02/20 16:09:40;;;;;;;4.23;2.57;;;10.00;99.90;;;;;;4972932;28;20689;-74
2023/02/20 16:12:07;;;;;;;4.60;2.70;;;10.00;99.90;;;;;;4973678;28;20207;-74
2023/02/20 16:14:35;;;;;;;3.20;2.30;;;10.00;99.90;;;;;;4974130;28;20238;-76
2023/02/20 16:17:02;;;;;;;6.13;2.53;;;9.90;99.90;;;;;;4973220;28;20203;-73
2023/02/20 16:19:29;;;;;;;4.67;2.60;;;9.80;99.90;;;;;;4973102;28;20600;-74
2023/02/20 16:21:56;;;;;;;5.43;2.40;;;9.80;99.90;;;;;;4973019;28;20213;-74
2023/02/20 16:24:23;;;;;;;5.23;2.60;;;9.90;99.90;;;;;;4972551;28;20211;-73
2023/02/20 16:26:51;;;;;;;6.47;2.83;;;9.90;99.90;;;;;;4973002;28;20207;-73
2023/02/20 16:29:22;;;;;;;7.37;3.20;;;9.90;99.90;;;;;;4972998;28;20229;-73
2023/02/20 16:32:22;;;;;;;5.77;2.83;;;9.80;99.90;;;;;;4972767;28;20207;-74
2023/02/20 16:34:49;;;;;;;6.10;2.77;;;9.70;99.90;;;;;;4972683;28;20235;-74
2023/02/20 16:37:17;;;;;;;4.50;2.70;;;9.80;99.90;;;;;;4973914;28;20207;-75
2023/02/20 16:39:44;;;;;;;6.37;2.90;;;9.70;99.90;;;;;;4972885;28;20677;-72
2023/02/20 16:42:20;;;;;;;4.67;2.90;;;9.70;99.90;;;;;;4973369;28;20207;-73
2023/02/20 16:44:48;;;;;;;6.47;3.07;;;9.80;99.90;;;;;;4973244;28;20207;-75
2023/02/20 16:47:17;;;;;;;8.00;3.10;;;9.70;99.90;;;;;;4972732;28;20685;-75
2023/02/20 16:49:45;;;;;;;6.97;3.20;;;9.70;99.90;;;;;;4972983;28;20223;-77
2023/02/20 16:52:18;;;;;;;6.40;2.87;;;9.60;99.90;;;;;;4972780;28;20204;-73
2023/02/20 16:54:46;;;;;;;7.77;3.30;;;9.70;99.90;;;;;;4972497;28;20254;-76
2023/02/20 16:57:13;;;;;;;13.37;5.93;;;9.70;99.90;;;;;;4972614;28;20221;-76
2023/02/20 16:59:40;;;;;;;6.63;2.90;;;9.70;99.90;;;;;;4974241;28;20203;-76
2023/02/20 17:02:07;;;;;;;5.87;3.00;;;9.60;99.90;;;;;;4974252;28;20681;-76
2023/02/20 17:04:34;;;;;;;5.83;3.00;;;9.50;99.90;;;;;;4974207;28;20211;-76
2023/02/20 17:07:02;;;;;;;7.53;3.30;;;9.50;99.90;;;;;;4974075;28;20207;-77
2023/02/20 17:09:29;;;;;;;6.23;3.20;;;9.50;99.90;;;;;;4973703;28;20231;-77
2023/02/20 17:11:55;;;;;;;6.47;3.10;;;9.50;99.90;;;;;;4974220;28;20243;-76
2023/02/20 17:14:22;;;;;;;7.00;3.37;;;9.40;99.90;;;;;;4973949;28;20231;-77
2023/02/20 17:16:50;;;;;;;6.37;3.10;;;9.40;99.90;;;;;;4974027;28;20667;-77
2023/02/20 17:19:17;;;;;;;6.03;3.40;;;9.50;99.90;;;;;;4974106;28;20227;-76
2023/02/20 17:21:48;;;;;;;6.63;3.33;;;9.50;99.90;;;;;;4973988;28;20203;-77
2023/02/20 17:24:18;;;;;;;6.60;3.90;;;9.50;99.90;;;;;;4974184;28;20274;-75
2023/02/20 17:26:45;;;;;;;7.27;3.40;;;9.50;99.90;;;;;;4973906;28;20695;-77
2023/02/20 17:29:13;;;;;;;7.43;3.27;;;9.40;99.90;;;;;;4973795;28;20227;-75
2023/02/20 17:31:40;;;;;;;6.40;3.23;;;9.40;99.90;;;;;;4973849;28;20220;-76
2023/02/20 17:34:07;;;;;;;12.00;4.20;;;9.40;99.90;;;;;;4975126;28;20235;-76
2023/02/20 17:36:34;;;;;;;8.60;3.87;;;9.30;99.90;;;;;;4977959;28;20211;-76
2023/02/20 17:39:01;;;;;;;6.97;3.57;;;9.40;99.90;;;;;;4977969;28;20230;-77
2023/02/20 17:41:29;;;;;;;11.10;4.37;;;9.30;99.90;;;;;;4977988;28;20211;-76
2023/02/20 17:43:56;;;;;;;6.30;4.20;;;9.30;99.90;;;;;;4977761;28;20221;-77
2023/02/20 17:46:22;;;;;;;11.40;4.63;;;9.30;99.90;;;;;;4977772;28;20291;-75
2023/02/20 17:48:49;;;;;;;8.10;3.77;;;9.30;99.90;;;;;;4977487;28;20246;-77
2023/02/20 17:51:18;;;;;;;6.70;3.93;;;9.30;99.90;;;;;;4977538;28;20207;-77
2023/02/20 17:53:45;;;;;;;8.73;4.37;;;9.30;99.90;;;;;;4977413;28;20281;-76
2023/02/20 17:56:17;;;;;;;7.93;3.77;;;9.30;99.90;;;;;;4977610;28;20203;-77
2023/02/20 17:58:45;;;;;;;10.77;4.10;;;9.30;99.90;;;;;;4977996;28;20574;-76
2023/02/20 18:01:12;;;;;;;7.50;4.00;;;9.20;99.90;;;;;;4977670;28;20211;-77
2023/02/20 18:03:39;;;;;;;8.97;3.70;;;9.20;99.90;;;;;;4977756;28;20221;-76
2023/02/20 18:06:06;;;;;;;8.03;4.30;;;9.20;99.90;;;;;;4977336;28;20204;-76
2023/02/20 18:08:33;;;;;;;8.07;4.20;;;9.20;99.90;;;;;;4977225;28;20233;-76
2023/02/20 18:11:00;;;;;;;9.30;4.87;;;9.20;99.90;;;;;;4977302;28;20213;-76
2023/02/20 18:13:27;;;;;;;11.60;4.87;;;9.20;99.90;;;;;;4977524;28;20217;-76
2023/02/20 18:15:55;;;;;;;9.43;5.13;;;9.10;99.90;;;;;;4977477;28;20218;-77
2023/02/20 18:18:22;;;;;;;11.33;5.77;;;9.20;99.90;;;;;;4976980;28;20586;-77
2023/02/20 18:20:48;;;;;;;10.60;5.03;;;9.10;99.90;;;;;;4976963;28;20229;-76
2023/02/20 18:23:15;;;;;;;9.00;4.37;;;9.10;99.90;;;;;;4977010;28;20207;-75
2023/02/20 18:25:42;;;;;;;8.03;4.20;;;9.00;99.90;;;;;;4976802;28;20222;-77
2023/02/20 18:28:09;;;;;;;8.00;4.50;;;9.00;99.90;;;;;;4976968;28;20233;-77
2023/02/20 18:30:36;;;;;;;5.83;3.70;;;9.10;99.90;;;;;;4978244;28;20207;-76
2023/02/20 18:33:04;;;;;;;9.50;4.20;;;9.00;99.90;;;;;;4977018;28;20234;-74
2023/02/20 18:35:31;;;;;;;8.83;4.30;;;9.10;99.90;;;;;;4976907;28;20235;-75
2023/02/20 18:37:59;;;;;;;11.07;4.13;;;9.10;99.90;;;;;;4976521;28;20238;-77
2023/02/20 18:40:26;;;;;;;6.60;3.90;;;9.10;99.90;;;;;;4976596;28;20222;-77
2023/02/20 18:42:53;;;;;;;17.57;4.77;;;9.20;99.90;;;;;;4977185;28;20203;-76
2023/02/20 18:45:20;;;;;;;10.03;5.00;;;9.20;99.90;;;;;;4976159;28;20666;-75
2023/02/20 18:47:49;;;;;;;9.53;4.40;;;9.10;99.90;;;;;;4976509;28;20231;-76
2023/02/20 18:50:18;;;;;;;6.80;3.97;;;9.00;99.90;;;;;;4976486;28;20216;-75
2023/02/20 18:52:46;;;;;;;7.70;4.60;;;9.10;99.90;;;;;;4976521;28;20221;-76
2023/02/20 18:55:16;;;;;;;8.97;5.00;;;9.10;99.90;;;;;;4976636;28;20235;-76
2023/02/20 18:57:45;;;;;;;11.57;4.60;;;9.10;99.90;;;;;;4976350;28;20234;-75
2023/02/20 19:00:13;;;;;;;9.60;4.53;;;9.10;99.90;;;;;;4976453;28;20658;-76
2023/02/20 19:02:40;;;;;;;8.43;4.73;;;9.10;99.90;;;;;;4976174;28;20262;-78
2023/02/20 19:05:07;;;;;;;10.37;4.57;;;9.10;99.90;;;;;;4976315;28;20215;-76
2023/02/20 19:07:35;;;;;;;11.10;5.37;;;9.10;99.90;;;;;;4976488;28;20227;-77
2023/02/20 19:10:04;;;;;;;11.73;5.83;;;9.10;99.90;;;;;;4971479;28;20207;-76
2023/02/20 19:12:31;;;;;;;11.33;4.97;;;9.00;99.90;;;;;;4975397;28;20238;-76
2023/02/20 19:14:58;;;;;;;11.97;5.43;;;9.00;99.90;;;;;;4975001;28;20267;-77
2023/02/20 19:17:24;;;;;;;11.33;4.60;;;9.00;99.90;;;;;;4974345;28;20214;-77
2023/02/20 19:19:51;;;;;;;10.73;5.50;;;9.10;99.90;;;;;;4974741;28;20293;-77
2023/02/20 19:22:18;;;;;;;13.27;5.50;;;9.00;99.90;;;;;;4974361;28;20214;-77
2023/02/20 19:24:46;;;;;;;9.33;5.40;;;9.00;99.90;;;;;;4974417;28;20207;-77
2023/02/20 19:27:13;;;;;;;13.80;6.10;;;9.00;99.90;;;;;;4974726;28;20203;-78
2023/02/20 19:29:40;;;;;;;10.53;5.87;;;9.10;99.90;;;;;;4970283;28;20298;-76
2023/02/20 19:32:07;;;;;;;11.90;4.97;;;8.90;99.90;;;;;;4974149;28;20614;-78
2023/02/20 19:34:34;;;;;;;9.17;5.33;;;8.90;99.90;;;;;;4974060;28;20223;-76
2023/02/20 19:37:02;;;;;;;10.50;5.90;;;9.00;99.90;;;;;;4974492;28;20595;-77
2023/02/20 19:39:29;;;;;;;10.70;5.77;;;8.90;99.90;;;;;;4973269;28;20223;-76
2023/02/20 19:41:57;;;;;;;12.47;6.30;;;8.90;99.90;;;;;;4973494;28;20218;-74
2023/02/20 19:44:24;;;;;;;12.00;6.37;;;8.90;99.90;;;;;;4974231;28;20208;-75
2023/02/20 19:46:52;;;;;;;12.73;6.17;;;8.90;99.90;;;;;;4974763;28;20207;-75
2023/02/20 19:49:18;;;;;;;11.73;6.50;;;8.90;99.90;;;;;;4975106;28;20598;-75
2023/02/20 19:51:46;;;;;;;14.50;7.33;;;8.90;99.90;;;;;;4975472;28;20204;-75
2023/02/20 19:54:13;;;;;;;13.03;6.70;;;8.90;99.90;;;;;;4974888;28;20238;-75
2023/02/20 19:56:45;;;;;;;11.77;6.60;;;8.90;99.90;;;;;;4974634;28;20207;-75
2023/02/20 19:59:14;;;;;;;12.27;6.23;;;8.80;99.90;;;;;;4974030;28;20227;-75
2023/02/20 20:01:40;;;;;;;13.53;6.77;;;8.80;99.90;;;;;;4975112;28;20204;-75
2023/02/20 20:04:07;;;;;;;13.83;6.50;;;8.80;99.90;;;;;;4974704;28;20207;-74
2023/02/20 20:06:34;;;;;;;11.13;6.77;;;8.70;99.90;;;;;;4975214;28;20329;-75
2023/02/20 20:09:02;;;;;;;12.53;6.77;;;8.90;99.90;;;;;;4975368;28;20231;-75
2023/02/20 20:11:29;;;;;;;13.20;7.47;;;8.90;99.90;;;;;;4975367;28;20206;-75
2023/02/20 20:13:56;;;;;;;14.60;6.10;;;8.80;99.90;;;;;;4975375;28;20577;-75
2023/02/20 20:16:24;;;;;;;14.53;7.60;;;8.80;99.90;;;;;;4974947;28;20762;-75
2023/02/20 20:18:52;;;;;;;11.87;6.40;;;8.90;99.90;;;;;;4975244;28;20231;-75
2023/02/20 20:21:18;;;;;;;13.10;7.03;;;8.90;99.90;;;;;;4975313;28;20203;-75
2023/02/20 20:23:45;;;;;;;12.73;6.80;;;8.80;99.90;;;;;;4975103;28;20211;-75
2023/02/20 20:26:12;;;;;;;11.87;6.30;;;8.80;99.90;;;;;;4975055;28;20217;-74
2023/02/20 20:28:39;;;;;;;12.47;6.00;;;8.80;99.90;;;;;;4975279;28;20227;-74
2023/02/20 20:31:06;;;;;;;12.30;7.23;;;8.70;99.90;;;;;;4975180;28;20263;-74
2023/02/20 20:33:34;;;;;;;11.60;6.77;;;8.80;99.90;;;;;;4974748;28;20209;-74
2023/02/20 20:36:00;;;;;;;11.80;6.27;;;8.80;99.90;;;;;;4974988;28;20362;-74
2023/02/20 20:38:27;;;;;;;9.40;5.80;;;8.80;99.90;;;;;;4974469;28;20254;-75
2023/02/20 20:40:55;;;;;;;10.33;5.93;;;8.90;99.90;;;;;;4974580;28;20207;-74
2023/02/20 20:43:21;;;;;;;10.80;6.20;;;9.00;99.90;;;;;;4974997;28;20239;-74
2023/02/20 20:45:48;;;;;;;19.40;10.73;;;9.20;99.90;;;;;;4974900;28;20207;-74
2023/02/20 20:48:15;;;;;;;9.60;6.00;;;9.20;99.90;;;;;;4975011;28;20239;-74
2023/02/20 20:50:43;;;;;;;11.37;6.33;;;9.10;99.90;;;;;;4974643;28;20210;-74
2023/02/20 20:53:10;;;;;;;10.10;5.73;;;9.00;99.90;;;;;;4974500;28;20207;-74
2023/02/20 20:55:37;;;;;;;8.70;5.17;;;8.90;99.90;;;;;;4974531;28;20345;-74
2023/02/20 20:58:04;;;;;;;14.23;5.90;;;9.00;99.90;;;;;;4974302;28;20789;-74
2023/02/20 21:00:33;;;;;;;11.57;6.53;;;9.00;99.90;;;;;;4974530;28;20210;-74
2023/02/20 21:03:00;;;;;;;14.53;6.83;;;8.90;99.90;;;;;;4974625;28;20207;-74
2023/02/20 21:05:29;;;;;;;14.93;6.63;;;8.70;99.90;;;;;;4974438;28;20215;-74
2023/02/20 21:07:57;;;;;;;11.70;5.83;;;8.70;99.90;;;;;;4974194;28;20231;-74
2023/02/20 21:10:24;;;;;;;8.60;5.30;;;8.70;99.90;;;;;;4974327;28;20211;-74
2023/02/20 21:12:51;;;;;;;8.73;5.23;;;8.70;99.90;;;;;;4974450;28;20211;-74
2023/02/20 21:15:19;;;;;;;12.33;6.10;;;8.60;99.90;;;;;;4974060;28;20243;-74
2023/02/20 21:17:46;;;;;;;12.53;6.57;;;8.70;99.90;;;;;;4974409;28;20234;-75
2023/02/20 21:20:15;;;;;;;11.57;5.80;;;8.60;99.90;;;;;;4974332;28;20243;-74
2023/02/20 21:22:42;;;;;;;10.70;5.60;;;8.60;99.90;;;;;;4974059;28;20566;-74
2023/02/20 21:25:10;;;;;;;12.27;6.40;;;8.60;99.90;;;;;;4974473;28;20590;-75
2023/02/20 21:27:37;;;;;;;11.83;6.37;;;8.60;99.90;;;;;;4974304;28;20250;-74
2023/02/20 21:30:05;;;;;;;10.67;5.70;;;8.60;99.90;;;;;;4974047;28;20214;-74
2023/02/20 21:32:32;;;;;;;11.33;6.03;;;8.60;99.90;;;;;;4974085;28;20214;-74
2023/02/20 21:34:59;;;;;;;12.37;6.43;;;8.60;99.90;;;;;;4974063;28;20227;-74
2023/02/20 21:37:26;;;;;;;14.23;7.37;;;8.70;99.90;;;;;;4974163;28;20306;-74
2023/02/20 21:39:53;;;;;;;12.37;6.30;;;8.60;99.90;;;;;;4974182;28;20302;-74
2023/02/20 21:45:06;;;;;;;12.50;6.33;;;8.60;99.90;;;;;;4973894;28;20222;-74
2023/02/20 21:47:33;;;;;;;13.93;7.20;;;8.60;99.90;;;;;;4973821;28;20237;-75
2023/02/20 21:50:00;;;;;;;13.93;6.80;;;8.70;99.90;;;;;;4974300;28;20211;-74
2023/02/20 21:52:34;;;;;;;14.63;7.30;;;8.80;99.90;;;;;;4973922;28;20207;-74
2023/02/20 21:55:02;;;;;;;15.23;7.23;;;8.80;99.90;;;;;;4973992;28;20348;-75
2023/02/20 21:57:30;;;;;;;14.07;7.10;;;8.60;99.90;;;;;;4973765;28;20294;-74
